CEB212 RPVM-RPLL
Flight info
| Callsign | CEB212 |
|---|---|
| Flight time | 1h 1m |
| Altitude | 25000 |
| Route | MULOP4P MULOP W11 CONDE CONDE1A |
| Aircraft | A20N/M-SDE2E3FGHIRWXY/LB1 |
Departure
| Time | 2026-05-06 20:51 |
|---|---|
| Airport | Mactan Cebu International Airport (RPVM) |
Arrival
| Time | 2026-05-06 21:52 |
|---|---|
| Airport | Ninoy Aquino International Airport (RPLL) |
| Time | Latitude | Longitude | Altitude | Speed | Heading |
|---|---|---|---|---|---|
| 2026-05-06 20:32 | 10.31378 | 123.98010 | 40 ft | 0 kts | 315° |
| 2026-05-06 20:40 | 10.31369 | 123.98019 | 40 ft | 2 kts | 314° |
| 2026-05-06 20:40 | 10.31357 | 123.98031 | 39 ft | 2 kts | 314° |
| 2026-05-06 20:40 | 10.31346 | 123.98043 | 39 ft | 2 kts | 313° |
| 2026-05-06 20:40 | 10.31335 | 123.98055 | 38 ft | 2 kts | 312° |
| 2026-05-06 20:41 | 10.31324 | 123.98068 | 37 ft | 2 kts | 309° |
| 2026-05-06 20:41 | 10.31315 | 123.98081 | 36 ft | 2 kts | 299° |
| 2026-05-06 20:41 | 10.31313 | 123.98096 | 38 ft | 1 kts | 224° |
| 2026-05-06 20:41 | 10.31314 | 123.98098 | 35 ft | 0 kts | 222° |
| 2026-05-06 20:46 | 10.31305 | 123.98088 | 38 ft | 5 kts | 223° |
| 2026-05-06 20:46 | 10.31267 | 123.98050 | 40 ft | 11 kts | 225° |
| 2026-05-06 20:46 | 10.31200 | 123.97983 | 39 ft | 15 kts | 224° |
| 2026-05-06 20:46 | 10.31087 | 123.97870 | 39 ft | 26 kts | 224° |
| 2026-05-06 20:47 | 10.30957 | 123.97739 | 40 ft | 26 kts | 225° |
| 2026-05-06 20:47 | 10.30828 | 123.97611 | 40 ft | 26 kts | 224° |
| 2026-05-06 20:47 | 10.30705 | 123.97487 | 38 ft | 25 kts | 226° |
| 2026-05-06 20:47 | 10.30582 | 123.97364 | 39 ft | 25 kts | 225° |
| 2026-05-06 20:48 | 10.30462 | 123.97243 | 40 ft | 24 kts | 225° |
| 2026-05-06 20:48 | 10.30341 | 123.97175 | 40 ft | 18 kts | 149° |
| 2026-05-06 20:48 | 10.30255 | 123.97261 | 40 ft | 17 kts | 135° |
| 2026-05-06 20:48 | 10.30179 | 123.97341 | 40 ft | 13 kts | 126° |
| 2026-05-06 20:49 | 10.30182 | 123.97367 | 40 ft | 2 kts | 52° |
| 2026-05-06 20:49 | 10.30188 | 123.97374 | 40 ft | 2 kts | 50° |
| 2026-05-06 20:49 | 10.30200 | 123.97386 | 40 ft | 0 kts | 44° |
| 2026-05-06 20:50 | 10.30206 | 123.97392 | 40 ft | 12 kts | 44° |
| 2026-05-06 20:50 | 10.30445 | 123.97631 | 41 ft | 82 kts | 44° |
| 2026-05-06 20:50 | 10.31002 | 123.98186 | 40 ft | 141 kts | 45° |
| 2026-05-06 20:50 | 10.31791 | 123.99003 | 161 ft | 173 kts | 44° |
| 2026-05-06 20:51 | 10.32617 | 123.99890 | 704 ft | 170 kts | 45° |
| 2026-05-06 20:51 | 10.33387 | 124.00714 | 1495 ft | 158 kts | 46° |
| 2026-05-06 20:51 | 10.34202 | 124.01585 | 1862 ft | 184 kts | 46° |
| 2026-05-06 20:51 | 10.35135 | 124.02602 | 2148 ft | 208 kts | 49° |
| 2026-05-06 20:52 | 10.36293 | 124.03650 | 2347 ft | 241 kts | 25° |
| 2026-05-06 20:52 | 10.38001 | 124.03823 | 2908 ft | 258 kts | 349° |
| 2026-05-06 20:52 | 10.39683 | 124.03097 | 3651 ft | 268 kts | 331° |
| 2026-05-06 20:52 | 10.41198 | 124.01947 | 4421 ft | 274 kts | 322° |
| 2026-05-06 20:53 | 10.42589 | 124.00639 | 5191 ft | 279 kts | 319° |
| 2026-05-06 20:53 | 10.43990 | 123.99243 | 5986 ft | 283 kts | 319° |
| 2026-05-06 20:53 | 10.45416 | 123.97849 | 6725 ft | 286 kts | 320° |
| 2026-05-06 20:53 | 10.46895 | 123.96465 | 7423 ft | 291 kts | 321° |
| 2026-05-06 20:54 | 10.48432 | 123.95090 | 8117 ft | 295 kts | 322° |
| 2026-05-06 20:54 | 10.49979 | 123.93745 | 8881 ft | 297 kts | 323° |
| 2026-05-06 20:54 | 10.51574 | 123.92380 | 9616 ft | 302 kts | 323° |
| 2026-05-06 20:54 | 10.53199 | 123.91001 | 10246 ft | 308 kts | 324° |
| 2026-05-06 20:55 | 10.54897 | 123.89570 | 10579 ft | 326 kts | 323° |
| 2026-05-06 20:55 | 10.56698 | 123.88052 | 10852 ft | 344 kts | 323° |
| 2026-05-06 20:55 | 10.58563 | 123.86474 | 11353 ft | 352 kts | 323° |
| 2026-05-06 20:55 | 10.60426 | 123.84886 | 11976 ft | 355 kts | 323° |
| 2026-05-06 20:56 | 10.62326 | 123.83263 | 12606 ft | 358 kts | 323° |
| 2026-05-06 20:56 | 10.64238 | 123.81628 | 13267 ft | 359 kts | 323° |
| 2026-05-06 20:56 | 10.66159 | 123.79990 | 13898 ft | 362 kts | 323° |
| 2026-05-06 20:56 | 10.68102 | 123.78336 | 14438 ft | 367 kts | 323° |
| 2026-05-06 20:57 | 10.70076 | 123.76655 | 14971 ft | 371 kts | 323° |
| 2026-05-06 20:57 | 10.72065 | 123.74961 | 15528 ft | 374 kts | 322° |
| 2026-05-06 20:57 | 10.74069 | 123.73254 | 16111 ft | 377 kts | 322° |
| 2026-05-06 20:57 | 10.76091 | 123.71530 | 16685 ft | 380 kts | 322° |
| 2026-05-06 20:58 | 10.78102 | 123.69815 | 17234 ft | 383 kts | 322° |
| 2026-05-06 20:58 | 10.80153 | 123.68066 | 17773 ft | 386 kts | 322° |
| 2026-05-06 20:58 | 10.82228 | 123.66295 | 18256 ft | 390 kts | 322° |
| 2026-05-06 20:58 | 10.84314 | 123.64515 | 18696 ft | 393 kts | 322° |
| 2026-05-06 20:59 | 10.86418 | 123.62720 | 19126 ft | 395 kts | 322° |
| 2026-05-06 20:59 | 10.88532 | 123.60915 | 19557 ft | 397 kts | 322° |
| 2026-05-06 20:59 | 10.90631 | 123.59122 | 19982 ft | 399 kts | 322° |
| 2026-05-06 20:59 | 10.92770 | 123.57295 | 20397 ft | 402 kts | 322° |
| 2026-05-06 21:00 | 10.94922 | 123.55457 | 20817 ft | 404 kts | 322° |
| 2026-05-06 21:00 | 10.97086 | 123.53609 | 21265 ft | 406 kts | 322° |
| 2026-05-06 21:00 | 10.99263 | 123.51758 | 21713 ft | 408 kts | 323° |
| 2026-05-06 21:00 | 11.01551 | 123.50033 | 22142 ft | 410 kts | 326° |
| 2026-05-06 21:01 | 11.03887 | 123.48339 | 22566 ft | 413 kts | 327° |
| 2026-05-06 21:01 | 11.06253 | 123.46666 | 22994 ft | 415 kts | 327° |
| 2026-05-06 21:01 | 11.08643 | 123.44998 | 23427 ft | 418 kts | 327° |
| 2026-05-06 21:01 | 11.11024 | 123.43345 | 23788 ft | 420 kts | 327° |
| 2026-05-06 21:02 | 11.13445 | 123.41665 | 24158 ft | 422 kts | 328° |
| 2026-05-06 21:02 | 11.15881 | 123.39970 | 24536 ft | 425 kts | 328° |
| 2026-05-06 21:02 | 11.18331 | 123.38262 | 24793 ft | 426 kts | 328° |
| 2026-05-06 21:02 | 11.20782 | 123.36552 | 24860 ft | 426 kts | 327° |
| 2026-05-06 21:03 | 11.23233 | 123.34839 | 24865 ft | 426 kts | 327° |
| 2026-05-06 21:03 | 11.25648 | 123.33150 | 24864 ft | 427 kts | 327° |
| 2026-05-06 21:03 | 11.28131 | 123.31412 | 24864 ft | 427 kts | 327° |
| 2026-05-06 21:03 | 11.30551 | 123.29718 | 24865 ft | 427 kts | 327° |
| 2026-05-06 21:04 | 11.33002 | 123.28002 | 24865 ft | 427 kts | 327° |
| 2026-05-06 21:04 | 11.35449 | 123.26290 | 24868 ft | 427 kts | 327° |
| 2026-05-06 21:04 | 11.37902 | 123.24572 | 24867 ft | 426 kts | 327° |
| 2026-05-06 21:04 | 11.40349 | 123.22858 | 24868 ft | 426 kts | 327° |
| 2026-05-06 21:05 | 11.42797 | 123.21144 | 24867 ft | 426 kts | 327° |
| 2026-05-06 21:05 | 11.45242 | 123.19430 | 24867 ft | 426 kts | 327° |
| 2026-05-06 21:05 | 11.47657 | 123.17738 | 24867 ft | 426 kts | 327° |
| 2026-05-06 21:05 | 11.50108 | 123.16020 | 24865 ft | 426 kts | 327° |
| 2026-05-06 21:06 | 11.52552 | 123.14308 | 24864 ft | 426 kts | 327° |
| 2026-05-06 21:06 | 11.54998 | 123.12593 | 24866 ft | 426 kts | 327° |
| 2026-05-06 21:06 | 11.57438 | 123.10882 | 24864 ft | 426 kts | 327° |
| 2026-05-06 21:06 | 11.59879 | 123.09169 | 24865 ft | 426 kts | 327° |
| 2026-05-06 21:07 | 11.62297 | 123.07472 | 24865 ft | 426 kts | 327° |
| 2026-05-06 21:07 | 11.64738 | 123.05759 | 24865 ft | 426 kts | 327° |
| 2026-05-06 21:07 | 11.67177 | 123.04048 | 24865 ft | 426 kts | 327° |
| 2026-05-06 21:07 | 11.69626 | 123.02329 | 24864 ft | 426 kts | 327° |
| 2026-05-06 21:08 | 11.72063 | 123.00618 | 24864 ft | 426 kts | 327° |
| 2026-05-06 21:08 | 11.74503 | 122.98904 | 24865 ft | 426 kts | 327° |
| 2026-05-06 21:08 | 11.76949 | 122.97185 | 24864 ft | 426 kts | 327° |
| 2026-05-06 21:08 | 11.79366 | 122.95487 | 24865 ft | 426 kts | 327° |
| 2026-05-06 21:09 | 11.81809 | 122.93770 | 24867 ft | 426 kts | 327° |
| 2026-05-06 21:09 | 11.84247 | 122.92056 | 24867 ft | 426 kts | 327° |
| 2026-05-06 21:09 | 11.86686 | 122.90341 | 24867 ft | 426 kts | 327° |
| 2026-05-06 21:09 | 11.89124 | 122.88626 | 24867 ft | 425 kts | 327° |
| 2026-05-06 21:10 | 11.91571 | 122.86904 | 24867 ft | 426 kts | 327° |
| 2026-05-06 21:10 | 11.93991 | 122.85201 | 24867 ft | 426 kts | 327° |
| 2026-05-06 21:10 | 11.96435 | 122.83481 | 24867 ft | 426 kts | 327° |
| 2026-05-06 21:10 | 11.98874 | 122.81765 | 24867 ft | 426 kts | 327° |
| 2026-05-06 21:11 | 12.01323 | 122.80041 | 24867 ft | 426 kts | 327° |
| 2026-05-06 21:11 | 12.03764 | 122.78322 | 24867 ft | 426 kts | 327° |
| 2026-05-06 21:11 | 12.06206 | 122.76602 | 24867 ft | 425 kts | 327° |
| 2026-05-06 21:11 | 12.08641 | 122.74887 | 24868 ft | 425 kts | 327° |
| 2026-05-06 21:12 | 12.11048 | 122.73191 | 24866 ft | 425 kts | 327° |
| 2026-05-06 21:12 | 12.13485 | 122.71473 | 24867 ft | 425 kts | 327° |
| 2026-05-06 21:12 | 12.15920 | 122.69756 | 24870 ft | 425 kts | 327° |
| 2026-05-06 21:12 | 12.18351 | 122.68042 | 24870 ft | 425 kts | 327° |
| 2026-05-06 21:13 | 12.20790 | 122.66322 | 24871 ft | 425 kts | 327° |
| 2026-05-06 21:13 | 12.23220 | 122.64607 | 24870 ft | 425 kts | 327° |
| 2026-05-06 21:13 | 12.25656 | 122.62888 | 24870 ft | 425 kts | 327° |
| 2026-05-06 21:13 | 12.28089 | 122.61171 | 24871 ft | 425 kts | 327° |
| 2026-05-06 21:14 | 12.30521 | 122.59454 | 24871 ft | 424 kts | 327° |
| 2026-05-06 21:14 | 12.32950 | 122.57740 | 24873 ft | 424 kts | 327° |
| 2026-05-06 21:14 | 12.35356 | 122.56040 | 24873 ft | 424 kts | 327° |
| 2026-05-06 21:14 | 12.37787 | 122.54324 | 24874 ft | 424 kts | 326° |
| 2026-05-06 21:15 | 12.40227 | 122.52598 | 24873 ft | 425 kts | 326° |
| 2026-05-06 21:15 | 12.42663 | 122.50876 | 24875 ft | 425 kts | 327° |
| 2026-05-06 21:15 | 12.45098 | 122.49152 | 24874 ft | 425 kts | 327° |
| 2026-05-06 21:15 | 12.46706 | 122.48014 | 24872 ft | 425 kts | 327° |
| 2026-05-06 21:16 | 12.49936 | 122.45731 | 24863 ft | 424 kts | 326° |
| 2026-05-06 21:16 | 12.52329 | 122.44037 | 24674 ft | 413 kts | 327° |
| 2026-05-06 21:16 | 12.53891 | 122.42931 | 24520 ft | 407 kts | 327° |
| 2026-05-06 21:16 | 12.56196 | 122.41300 | 24307 ft | 398 kts | 327° |
| 2026-05-06 21:17 | 12.58452 | 122.39702 | 24094 ft | 392 kts | 327° |
| 2026-05-06 21:17 | 12.60693 | 122.38116 | 23878 ft | 391 kts | 327° |
| 2026-05-06 21:17 | 12.62934 | 122.36530 | 23675 ft | 391 kts | 327° |
| 2026-05-06 21:17 | 12.65179 | 122.34940 | 23450 ft | 390 kts | 327° |
| 2026-05-06 21:18 | 12.67386 | 122.33376 | 23193 ft | 390 kts | 327° |
| 2026-05-06 21:18 | 12.69618 | 122.31794 | 22936 ft | 389 kts | 327° |
| 2026-05-06 21:18 | 12.71873 | 122.30196 | 22680 ft | 388 kts | 327° |
| 2026-05-06 21:18 | 12.74058 | 122.28647 | 22430 ft | 387 kts | 327° |
| 2026-05-06 21:19 | 12.76274 | 122.27075 | 22171 ft | 386 kts | 327° |
| 2026-05-06 21:19 | 12.78483 | 122.25509 | 21928 ft | 384 kts | 327° |
| 2026-05-06 21:19 | 12.80682 | 122.23948 | 21686 ft | 382 kts | 327° |
| 2026-05-06 21:19 | 12.82863 | 122.22401 | 21440 ft | 381 kts | 327° |
| 2026-05-06 21:20 | 12.85009 | 122.20877 | 21206 ft | 380 kts | 327° |
| 2026-05-06 21:20 | 12.87180 | 122.19337 | 20972 ft | 378 kts | 327° |
| 2026-05-06 21:20 | 12.89346 | 122.17798 | 20882 ft | 377 kts | 327° |
| 2026-05-06 21:20 | 12.91510 | 122.16262 | 20875 ft | 377 kts | 327° |
| 2026-05-06 21:21 | 12.93672 | 122.14726 | 20833 ft | 376 kts | 327° |
| 2026-05-06 21:21 | 12.95816 | 122.13202 | 20395 ft | 375 kts | 327° |
| 2026-05-06 21:21 | 12.97931 | 122.11699 | 19974 ft | 373 kts | 327° |
| 2026-05-06 21:21 | 13.00054 | 122.10190 | 19557 ft | 370 kts | 327° |
| 2026-05-06 21:22 | 13.02161 | 122.08692 | 19114 ft | 368 kts | 327° |
| 2026-05-06 21:22 | 13.04271 | 122.07191 | 18698 ft | 366 kts | 327° |
| 2026-05-06 21:22 | 13.06356 | 122.05708 | 18283 ft | 364 kts | 327° |
| 2026-05-06 21:22 | 13.08430 | 122.04233 | 17822 ft | 362 kts | 327° |
| 2026-05-06 21:23 | 13.10494 | 122.02764 | 17352 ft | 359 kts | 327° |
| 2026-05-06 21:23 | 13.12513 | 122.01327 | 16908 ft | 357 kts | 327° |
| 2026-05-06 21:23 | 13.14549 | 121.99878 | 16454 ft | 355 kts | 326° |
| 2026-05-06 21:23 | 13.16573 | 121.98437 | 16015 ft | 352 kts | 326° |
| 2026-05-06 21:24 | 13.18582 | 121.97006 | 15575 ft | 350 kts | 326° |
| 2026-05-06 21:24 | 13.20580 | 121.95583 | 15136 ft | 348 kts | 326° |
| 2026-05-06 21:24 | 13.22563 | 121.94170 | 14720 ft | 346 kts | 326° |
| 2026-05-06 21:24 | 13.24531 | 121.92767 | 14306 ft | 343 kts | 326° |
| 2026-05-06 21:25 | 13.26462 | 121.91391 | 13899 ft | 341 kts | 326° |
| 2026-05-06 21:25 | 13.28408 | 121.90004 | 13458 ft | 340 kts | 326° |
| 2026-05-06 21:25 | 13.30342 | 121.88625 | 13174 ft | 337 kts | 326° |
| 2026-05-06 21:25 | 13.32269 | 121.87251 | 12922 ft | 337 kts | 326° |
| 2026-05-06 21:26 | 13.34192 | 121.85879 | 12683 ft | 336 kts | 326° |
| 2026-05-06 21:26 | 13.36111 | 121.84510 | 12433 ft | 334 kts | 326° |
| 2026-05-06 21:26 | 13.38018 | 121.83149 | 12186 ft | 332 kts | 326° |
| 2026-05-06 21:26 | 13.39916 | 121.81794 | 11941 ft | 332 kts | 326° |
| 2026-05-06 21:27 | 13.41810 | 121.80443 | 11707 ft | 331 kts | 326° |
| 2026-05-06 21:27 | 13.43698 | 121.79094 | 11465 ft | 330 kts | 327° |
| 2026-05-06 21:27 | 13.45571 | 121.77757 | 11234 ft | 332 kts | 327° |
| 2026-05-06 21:27 | 13.47490 | 121.76387 | 10994 ft | 331 kts | 326° |
| 2026-05-06 21:28 | 13.49344 | 121.75063 | 10767 ft | 327 kts | 327° |
| 2026-05-06 21:28 | 13.51213 | 121.73726 | 10532 ft | 326 kts | 327° |
| 2026-05-06 21:28 | 13.53073 | 121.72397 | 10301 ft | 326 kts | 327° |
| 2026-05-06 21:28 | 13.54933 | 121.71067 | 10083 ft | 324 kts | 326° |
| 2026-05-06 21:29 | 13.56777 | 121.69749 | 10007 ft | 321 kts | 327° |
| 2026-05-06 21:29 | 13.58609 | 121.68439 | 9999 ft | 320 kts | 327° |
| 2026-05-06 21:29 | 13.60420 | 121.67142 | 9997 ft | 312 kts | 328° |
| 2026-05-06 21:29 | 13.62196 | 121.65872 | 10001 ft | 318 kts | 326° |
| 2026-05-06 21:30 | 13.64016 | 121.64571 | 9993 ft | 317 kts | 327° |
| 2026-05-06 21:30 | 13.65803 | 121.63291 | 10008 ft | 309 kts | 327° |
| 2026-05-06 21:30 | 13.67588 | 121.62015 | 10003 ft | 316 kts | 326° |
| 2026-05-06 21:30 | 13.69382 | 121.60731 | 10003 ft | 309 kts | 326° |
| 2026-05-06 21:31 | 13.71132 | 121.59476 | 10004 ft | 308 kts | 326° |
| 2026-05-06 21:31 | 13.72918 | 121.58198 | 9999 ft | 314 kts | 327° |
| 2026-05-06 21:31 | 13.74666 | 121.56945 | 10004 ft | 307 kts | 327° |
| 2026-05-06 21:31 | 13.76453 | 121.55666 | 10002 ft | 316 kts | 327° |
| 2026-05-06 21:32 | 13.78244 | 121.54382 | 10004 ft | 309 kts | 327° |
| 2026-05-06 21:32 | 13.81792 | 121.51839 | 10010 ft | 313 kts | 326° |
| 2026-05-06 21:32 | 13.83570 | 121.50564 | 10014 ft | 310 kts | 326° |
| 2026-05-06 21:33 | 13.85342 | 121.49294 | 10009 ft | 316 kts | 326° |
| 2026-05-06 21:33 | 13.87122 | 121.48017 | 10012 ft | 307 kts | 326° |
| 2026-05-06 21:33 | 13.88877 | 121.46757 | 10014 ft | 312 kts | 326° |
| 2026-05-06 21:33 | 13.90679 | 121.45465 | 10010 ft | 313 kts | 326° |
| 2026-05-06 21:34 | 13.92425 | 121.44211 | 10017 ft | 308 kts | 326° |
| 2026-05-06 21:34 | 13.94217 | 121.42925 | 10010 ft | 317 kts | 326° |
| 2026-05-06 21:34 | 13.96006 | 121.41641 | 10009 ft | 310 kts | 326° |
| 2026-05-06 21:34 | 13.97779 | 121.40368 | 10012 ft | 312 kts | 326° |
| 2026-05-06 21:35 | 13.99578 | 121.39077 | 10008 ft | 316 kts | 326° |
| 2026-05-06 21:35 | 14.01348 | 121.37804 | 10016 ft | 305 kts | 326° |
| 2026-05-06 21:35 | 14.03103 | 121.36543 | 9991 ft | 310 kts | 326° |
| 2026-05-06 21:35 | 14.04890 | 121.35260 | 9510 ft | 316 kts | 326° |
| 2026-05-06 21:36 | 14.06652 | 121.33992 | 9240 ft | 307 kts | 327° |
| 2026-05-06 21:36 | 14.08379 | 121.32749 | 8887 ft | 298 kts | 327° |
| 2026-05-06 21:36 | 14.10072 | 121.31531 | 8428 ft | 296 kts | 327° |
| 2026-05-06 21:36 | 14.11757 | 121.30319 | 8096 ft | 293 kts | 327° |
| 2026-05-06 21:37 | 14.13429 | 121.29118 | 8018 ft | 292 kts | 327° |
| 2026-05-06 21:37 | 14.15101 | 121.27916 | 8012 ft | 294 kts | 327° |
| 2026-05-06 21:37 | 14.16765 | 121.26719 | 8010 ft | 294 kts | 327° |
| 2026-05-06 21:37 | 14.18443 | 121.25511 | 8005 ft | 294 kts | 327° |
| 2026-05-06 21:38 | 14.20120 | 121.24304 | 7963 ft | 293 kts | 327° |
| 2026-05-06 21:38 | 14.21798 | 121.23095 | 7565 ft | 293 kts | 327° |
| 2026-05-06 21:38 | 14.23468 | 121.21892 | 7186 ft | 291 kts | 327° |
| 2026-05-06 21:38 | 14.25103 | 121.20714 | 6875 ft | 287 kts | 327° |
| 2026-05-06 21:39 | 14.26701 | 121.19561 | 6695 ft | 274 kts | 327° |
| 2026-05-06 21:39 | 14.28242 | 121.18449 | 6335 ft | 267 kts | 327° |
| 2026-05-06 21:39 | 14.29707 | 121.17294 | 6056 ft | 263 kts | 323° |
| 2026-05-06 21:39 | 14.30908 | 121.15869 | 6000 ft | 266 kts | 297° |
| 2026-05-06 21:40 | 14.31344 | 121.14019 | 5898 ft | 269 kts | 270° |
| 2026-05-06 21:40 | 14.30957 | 121.12132 | 5486 ft | 270 kts | 246° |
| 2026-05-06 21:40 | 14.30149 | 121.10424 | 5235 ft | 265 kts | 241° |
| 2026-05-06 21:40 | 14.29280 | 121.08772 | 5052 ft | 258 kts | 240° |
| 2026-05-06 21:41 | 14.28421 | 121.07169 | 4996 ft | 253 kts | 240° |
| 2026-05-06 21:41 | 14.27713 | 121.05499 | 5007 ft | 255 kts | 257° |
| 2026-05-06 21:41 | 14.27444 | 121.03691 | 4996 ft | 256 kts | 265° |
| 2026-05-06 21:41 | 14.27300 | 121.01866 | 4998 ft | 256 kts | 266° |
| 2026-05-06 21:42 | 14.27133 | 121.00057 | 5013 ft | 255 kts | 263° |
| 2026-05-06 21:42 | 14.26901 | 120.98261 | 4809 ft | 248 kts | 262° |
| 2026-05-06 21:42 | 14.26668 | 120.96536 | 4573 ft | 238 kts | 262° |
| 2026-05-06 21:42 | 14.26440 | 120.94864 | 4249 ft | 233 kts | 262° |
| 2026-05-06 21:43 | 14.26208 | 120.93217 | 4034 ft | 231 kts | 262° |
| 2026-05-06 21:43 | 14.25933 | 120.91583 | 4006 ft | 232 kts | 255° |
| 2026-05-06 21:43 | 14.25392 | 120.90015 | 4000 ft | 232 kts | 249° |
| 2026-05-06 21:43 | 14.25023 | 120.88395 | 3716 ft | 234 kts | 268° |
| 2026-05-06 21:44 | 14.25322 | 120.86800 | 3340 ft | 228 kts | 300° |
| 2026-05-06 21:44 | 14.26373 | 120.85667 | 3066 ft | 215 kts | 335° |
| 2026-05-06 21:44 | 14.27746 | 120.85086 | 3012 ft | 213 kts | 346° |
| 2026-05-06 21:44 | 14.29166 | 120.84651 | 3003 ft | 213 kts | 348° |
| 2026-05-06 21:45 | 14.30587 | 120.84239 | 3004 ft | 212 kts | 348° |
| 2026-05-06 21:45 | 14.32012 | 120.83824 | 3006 ft | 212 kts | 348° |
| 2026-05-06 21:45 | 14.33436 | 120.83404 | 3001 ft | 212 kts | 348° |
| 2026-05-06 21:45 | 14.34854 | 120.82983 | 2999 ft | 212 kts | 348° |
| 2026-05-06 21:46 | 14.36274 | 120.82560 | 3005 ft | 212 kts | 348° |
| 2026-05-06 21:46 | 14.37684 | 120.82171 | 2997 ft | 211 kts | 355° |
| 2026-05-06 21:46 | 14.39105 | 120.82300 | 2989 ft | 203 kts | 26° |
| 2026-05-06 21:46 | 14.40242 | 120.83100 | 3007 ft | 194 kts | 43° |
| 2026-05-06 21:47 | 14.41170 | 120.84071 | 3001 ft | 188 kts | 54° |
| 2026-05-06 21:47 | 14.41859 | 120.85194 | 3010 ft | 178 kts | 62° |
| 2026-05-06 21:47 | 14.42409 | 120.86262 | 2995 ft | 159 kts | 62° |
| 2026-05-06 21:47 | 14.42904 | 120.87204 | 2861 ft | 145 kts | 62° |
| 2026-05-06 21:48 | 14.43383 | 120.88090 | 2662 ft | 139 kts | 62° |
| 2026-05-06 21:48 | 14.43848 | 120.88954 | 2436 ft | 137 kts | 60° |
| 2026-05-06 21:48 | 14.44311 | 120.89813 | 2270 ft | 136 kts | 60° |
| 2026-05-06 21:48 | 14.44772 | 120.90671 | 2089 ft | 136 kts | 60° |
| 2026-05-06 21:49 | 14.45233 | 120.91527 | 1911 ft | 136 kts | 60° |
| 2026-05-06 21:49 | 14.45686 | 120.92369 | 1743 ft | 136 kts | 60° |
| 2026-05-06 21:49 | 14.46147 | 120.93225 | 1566 ft | 135 kts | 60° |
| 2026-05-06 21:49 | 14.46596 | 120.94062 | 1368 ft | 135 kts | 59° |
| 2026-05-06 21:50 | 14.47057 | 120.94919 | 1199 ft | 135 kts | 59° |
| 2026-05-06 21:50 | 14.47512 | 120.95764 | 1019 ft | 134 kts | 59° |
| 2026-05-06 21:50 | 14.47966 | 120.96613 | 848 ft | 135 kts | 62° |
| 2026-05-06 21:50 | 14.48413 | 120.97459 | 683 ft | 133 kts | 61° |
| 2026-05-06 21:51 | 14.48867 | 120.98303 | 532 ft | 134 kts | 62° |
| 2026-05-06 21:51 | 14.49309 | 120.99130 | 361 ft | 133 kts | 63° |
| 2026-05-06 21:51 | 14.49761 | 120.99967 | 150 ft | 133 kts | 62° |
| 2026-05-06 21:51 | 14.50208 | 121.00765 | 63 ft | 113 kts | 61° |
| 2026-05-06 21:52 | 14.50472 | 121.01246 | 70 ft | 64 kts | 60° |
| 2026-05-06 21:52 | 14.50698 | 121.01652 | 67 ft | 68 kts | 58° |
| 2026-05-06 21:52 | 14.50913 | 121.02038 | 68 ft | 55 kts | 60° |
| 2026-05-06 21:52 | 14.51079 | 121.02261 | 70 ft | 28 kts | 37° |
| 2026-05-06 21:53 | 14.51187 | 121.02294 | 70 ft | 6 kts | 308° |
| 2026-05-06 21:53 | 14.51186 | 121.02271 | 67 ft | 2 kts | 243° |
| 2026-05-06 21:53 | 14.51175 | 121.02241 | 68 ft | 11 kts | 251° |
| 2026-05-06 21:53 | 14.51134 | 121.02145 | 64 ft | 13 kts | 242° |
| 2026-05-06 21:54 | 14.51084 | 121.02065 | 66 ft | 13 kts | 239° |
| 2026-05-06 21:54 | 14.51040 | 121.01985 | 68 ft | 10 kts | 240° |
| 2026-05-06 21:54 | 14.51034 | 121.01922 | 70 ft | 9 kts | 303° |
| 2026-05-06 21:54 | 14.51077 | 121.01876 | 72 ft | 9 kts | 315° |
| 2026-05-06 21:55 | 14.51118 | 121.01833 | 67 ft | 8 kts | 315° |
| 2026-05-06 21:55 | 14.51160 | 121.01791 | 72 ft | 8 kts | 315° |
| 2026-05-06 21:55 | 14.51202 | 121.01747 | 61 ft | 9 kts | 315° |
| 2026-05-06 21:55 | 14.51245 | 121.01702 | 64 ft | 9 kts | 313° |
| 2026-05-06 21:56 | 14.51287 | 121.01659 | 68 ft | 8 kts | 315° |
| 2026-05-06 21:56 | 14.51328 | 121.01617 | 69 ft | 8 kts | 315° |
| 2026-05-06 21:56 | 14.51367 | 121.01578 | 68 ft | 7 kts | 319° |
| 2026-05-06 21:56 | 14.51417 | 121.01582 | 69 ft | 9 kts | 34° |
| 2026-05-06 21:57 | 14.51470 | 121.01621 | 68 ft | 10 kts | 35° |
| 2026-05-06 21:57 | 14.51520 | 121.01670 | 67 ft | 10 kts | 45° |
| 2026-05-06 21:57 | 14.51571 | 121.01721 | 63 ft | 10 kts | 44° |
| 2026-05-06 21:57 | 14.51622 | 121.01772 | 65 ft | 9 kts | 44° |
| 2026-05-06 21:58 | 14.51672 | 121.01781 | 61 ft | 7 kts | 344° |
| 2026-05-06 21:58 | 14.51688 | 121.01757 | 70 ft | 2 kts | 238° |
| 2026-05-06 21:58 | 14.51679 | 121.01749 | 70 ft | 3 kts | 218° |
| 2026-05-06 21:58 | 14.51664 | 121.01736 | 70 ft | 3 kts | 223° |
| 2026-05-06 21:59 | 14.51654 | 121.01726 | 68 ft | 0 kts | 224° |